Time;durP1;ratioP1;P1;durP2;ratioP2;P2;SDS_P1;SDS_P2;PMS_P1;PMS_P2;Temp;Humidity;BMP_temperature;BMP_pressure;BME280_temperature;BME280_humidity;BME280_pressure;Samples;Min_cycle;Max_cycle;Signal;HPM_P1;HPM_P2
2023/07/06 00:01:22;;;;;;;8.00;4.18;;;;;;;23.51;100.00;100223.84;5008611;28;20057;-80
2023/07/06 00:03:47;;;;;;;7.03;3.90;;;;;;;23.34;100.00;100216.75;5000698;28;20049;-81
2023/07/06 00:06:13;;;;;;;8.18;3.83;;;;;;;23.64;100.00;100242.75;5004367;28;20030;-81
2023/07/06 00:08:39;;;;;;;5.93;3.75;;;;;;;23.75;100.00;100243.03;4990538;28;20421;-80
2023/07/06 00:11:07;;;;;;;8.30;3.22;;;;;;;23.38;100.00;100188.84;5008685;28;20029;-80
2023/07/06 00:13:33;;;;;;;6.75;4.03;;;;;;;23.57;100.00;100227.03;5008627;28;20500;-81
2023/07/06 00:16:02;;;;;;;5.63;3.15;;;;;;;22.86;100.00;100109.66;5008369;28;20069;-81
2023/07/06 00:18:29;;;;;;;7.05;4.43;;;;;;;23.34;100.00;100212.28;5007315;28;20042;-80
2023/07/06 00:20:55;;;;;;;6.82;4.70;;;;;;;22.86;100.00;100187.25;5007869;28;20069;-82
2023/07/06 00:23:23;;;;;;;6.35;4.20;;;;;;;22.90;100.00;100253.03;5008088;28;20074;-80
2023/07/06 00:25:48;;;;;;;5.70;3.70;;;;;;;22.45;100.00;100190.34;5003189;28;20034;-81
2023/07/06 00:28:14;;;;;;;5.90;3.72;;;;;;;22.38;100.00;100196.06;4999484;28;20049;-80
2023/07/06 00:30:53;;;;;;;5.30;3.67;;;;;;;22.99;100.00;100251.69;5005963;28;20517;-80
2023/07/06 00:33:20;;;;;;;6.45;4.95;;;;;;;22.52;100.00;100174.81;5006267;28;20054;-81
2023/07/06 00:35:46;;;;;;;6.72;4.68;;;;;;;22.88;100.00;100246.91;5003757;28;20075;-80
2023/07/06 00:38:18;;;;;;;7.00;3.22;;;;;;;22.10;100.00;100162.72;4999645;28;20121;-81
2023/07/06 00:40:53;;;;;;;6.93;3.83;;;;;;;21.99;100.00;100168.66;5008296;28;20033;-79
2023/07/06 00:43:24;;;;;;;7.63;4.82;;;;;;;22.20;100.00;100243.31;4989852;28;20401;-80
2023/07/06 00:46:03;;;;;;;10.65;4.15;;;;;;;21.64;100.00;100173.97;5007074;28;20485;-80
2023/07/06 00:48:33;;;;;;;7.13;3.42;;;;;;;22.11;100.00;100245.50;5007855;28;20064;-81
2023/07/06 00:51:13;;;;;;;4.80;2.58;;;;;;;21.84;100.00;100225.50;4990209;28;20482;-82
2023/07/06 00:53:42;;;;;;;5.70;3.63;;;;;;;21.77;100.00;100158.16;4988714;28;20088;-81
2023/07/06 00:56:10;;;;;;;11.02;3.28;;;;;;;22.02;100.00;100263.81;5004518;28;20050;-78
2023/07/06 00:58:43;;;;;;;7.43;5.43;;;;;;;21.64;100.00;100199.81;5002449;28;20141;-80
2023/07/06 01:01:11;;;;;;;4.95;3.15;;;;;;;21.37;100.00;100164.59;5007500;28;20045;-78
2023/07/06 01:03:44;;;;;;;6.35;3.63;;;;;;;21.11;100.00;100150.72;5007143;28;20052;-80
2023/07/06 01:06:15;;;;;;;7.50;3.47;;;;;;;21.52;100.00;100227.97;5004818;28;20115;-79
2023/07/06 01:08:41;;;;;;;5.63;2.33;;;;;;;21.56;100.00;100234.00;5007238;28;20041;-79
2023/07/06 01:11:09;;;;;;;6.82;3.13;;;;;;;21.65;100.00;100247.78;4997012;28;20544;-78
2023/07/06 01:13:35;;;;;;;5.03;3.38;;;;;;;21.06;100.00;100164.25;4998154;28;20034;-80
2023/07/06 01:16:07;;;;;;;6.68;4.35;;;;;;;21.19;100.00;100185.91;5007077;28;20053;-80
2023/07/06 01:18:50;;;;;;;16.48;2.65;;;;;;;21.45;100.00;100186.50;5006946;28;20049;-81
2023/07/06 01:21:45;;;;;;;7.88;2.85;;;;;;;21.77;100.00;100243.63;4988958;28;20497;-79
2023/07/06 01:24:33;;;;;;;4.72;2.88;;;;;;;21.50;100.00;100249.41;5007363;28;20046;-79
2023/07/06 01:27:09;;;;;;;5.25;3.22;;;;;;;21.53;100.00;100252.88;4999211;28;20099;-79
2023/07/06 01:29:40;;;;;;;5.03;2.85;;;;;;;21.44;100.00;100243.47;5006456;28;20057;-81
2023/07/06 01:32:16;;;;;;;4.90;2.78;;;;;;;20.88;100.00;100149.13;5007316;28;20481;-79
2023/07/06 01:34:53;;;;;;;4.30;2.65;;;;;;;21.04;100.00;100155.47;5004307;28;20065;-81
2023/07/06 01:37:27;;;;;;;6.78;3.50;;;;;;;21.38;100.00;100225.94;4999378;28;20052;-80
2023/07/06 01:39:54;;;;;;;6.82;3.20;;;;;;;20.92;100.00;100158.72;5006460;28;20042;-81
2023/07/06 01:42:26;;;;;;;16.55;3.33;;;;;;;21.60;100.00;100252.47;5006790;28;20549;-79
2023/07/06 01:44:53;;;;;;;4.78;3.20;;;;;;;21.20;100.00;100160.94;5006876;28;20048;-79
2023/07/06 01:47:19;;;;;;;6.82;3.47;;;;;;;21.54;100.00;100241.22;5000555;28;20037;-79
2023/07/06 01:49:48;;;;;;;7.10;4.47;;;;;;;20.97;100.00;100167.38;5002985;28;20033;-82
2023/07/06 01:52:36;;;;;;;5.03;2.53;;;;;;;21.47;100.00;100238.03;4996892;28;20069;-78
2023/07/06 01:55:09;;;;;;;4.60;2.58;;;;;;;21.59;100.00;100244.56;5000278;28;20457;-77
2023/07/06 01:58:15;;;;;;;8.05;2.83;;;;;;;21.72;100.00;100235.00;5004140;28;20780;-80
2023/07/06 02:00:46;;;;;;;5.43;2.50;;;;;;;21.65;100.00;100217.53;5005801;28;20096;-79
2023/07/06 02:03:12;;;;;;;5.53;2.97;;;;;;;21.30;100.00;100145.34;5002941;28;20042;-78
2023/07/06 02:05:40;;;;;;;13.07;5.03;;;;;;;21.58;100.00;100208.97;5005498;28;20072;-80
2023/07/06 02:08:08;;;;;;;8.27;3.20;;;;;;;21.61;100.00;100210.63;5000162;28;20493;-78
2023/07/06 02:10:34;;;;;;;4.93;3.40;;;;;;;21.55;100.00;100203.78;5006522;28;20038;-79
2023/07/06 02:13:00;;;;;;;6.72;3.30;;;;;;;21.64;100.00;100223.84;5006974;28;20048;-81
2023/07/06 02:15:27;;;;;;;5.53;3.35;;;;;;;21.68;100.00;100223.63;4989229;28;20050;-79
2023/07/06 02:17:55;;;;;;;6.97;2.97;;;;;;;21.47;100.00;100211.31;5008053;28;20088;-80
2023/07/06 02:20:20;;;;;;;4.25;2.80;;;;;;;21.20;100.00;100202.78;5006199;28;20500;-80
2023/07/06 02:22:46;;;;;;;4.20;2.42;;;;;;;20.95;100.00;100171.91;5006895;28;20041;-79
2023/07/06 02:25:13;;;;;;;6.20;3.35;;;;;;;20.82;100.00;100195.63;5006140;28;20069;-80
2023/07/06 02:27:38;;;;;;;4.90;3.33;;;;;;;20.59;100.00;100167.34;5002543;28;20060;-78
2023/07/06 02:30:05;;;;;;;4.70;2.83;;;;;;;20.88;100.00;100159.78;5002476;28;20038;-79
2023/07/06 02:32:31;;;;;;;4.07;2.92;;;;;;;21.48;100.00;100239.72;4984063;28;20572;-82
2023/07/06 02:34:57;;;;;;;5.75;2.88;;;;;;;21.06;100.00;100158.94;5005113;28;20085;-82
2023/07/06 02:37:23;;;;;;;8.27;3.25;;;;;;;21.36;100.00;100202.91;5001733;28;20038;-79
2023/07/06 02:39:50;;;;;;;4.20;2.85;;;;;;;20.90;100.00;100133.06;5004372;28;20046;-82
2023/07/06 02:42:16;;;;;;;5.32;3.50;;;;;;;21.55;100.00;100242.97;5003089;28;20100;-80
2023/07/06 02:44:43;;;;;;;4.20;2.80;;;;;;;21.53;100.00;100242.19;5006470;28;20053;-79
2023/07/06 02:47:11;;;;;;;5.03;2.90;;;;;;;21.54;100.00;100234.13;4998249;28;20026;-78
2023/07/06 02:49:37;;;;;;;3.75;2.58;;;;;;;21.09;100.00;100163.25;4988483;28;20077;-80
2023/07/06 02:52:03;;;;;;;5.40;2.80;;;;;;;21.07;100.00;100144.66;5005891;28;20054;-79
2023/07/06 02:54:28;;;;;;;9.82;4.40;;;;;;;21.09;100.00;100144.56;5005872;28;20145;-81
2023/07/06 02:57:00;;;;;;;4.95;3.55;;;;;;;21.67;100.00;100243.22;5005579;28;20096;-81
2023/07/06 02:59:27;;;;;;;3.75;2.83;;;;;;;21.59;100.00;100224.06;5005595;28;20042;-80
2023/07/06 03:01:52;;;;;;;6.65;3.90;;;;;;;21.17;100.00;100163.78;4988380;28;20050;-78
2023/07/06 03:04:19;;;;;;;6.30;2.67;;;;;;;20.98;100.00;100134.44;5008329;28;20061;-78
2023/07/06 03:06:45;;;;;;;6.20;3.03;;;;;;;21.59;100.00;100237.41;5002594;28;20046;-78
2023/07/06 03:09:11;;;;;;;3.95;2.55;;;;;;;21.46;100.00;100237.13;5009856;28;20053;-77
2023/07/06 03:11:37;;;;;;;5.28;2.65;;;;;;;21.58;100.00;100241.00;5007955;28;20049;-80
2023/07/06 03:14:03;;;;;;;5.05;2.80;;;;;;;21.11;100.00;100128.50;4988956;28;20380;-80
2023/07/06 03:16:38;;;;;;;4.80;2.67;;;;;;;21.82;100.00;100262.13;4986820;28;20409;-79
2023/07/06 03:19:04;;;;;;;8.93;3.60;;;;;;;21.79;100.00;100259.59;5006032;28;20390;-80
2023/07/06 03:21:29;;;;;;;5.72;3.80;;;;;;;21.21;100.00;100185.81;5007222;28;20127;-80
2023/07/06 03:23:55;;;;;;;3.97;2.03;;;;;;;21.60;100.00;100247.16;4990699;28;20088;-80
2023/07/06 03:26:21;;;;;;;6.18;3.00;;;;;;;21.63;100.00;100249.69;5008894;28;20065;-79
2023/07/06 03:28:47;;;;;;;3.88;2.38;;;;;;;21.47;100.00;100189.97;5006463;28;20108;-82
2023/07/06 03:31:14;;;;;;;6.53;2.67;;;;;;;21.88;100.00;100256.47;5009129;28;20037;-82
2023/07/06 03:33:41;;;;;;;5.75;3.67;;;;;;;21.69;100.00;100224.47;5013532;28;20124;-79
2023/07/06 03:36:07;;;;;;;3.90;2.55;;;;;;;21.42;100.00;100150.13;4984918;28;20057;-79
2023/07/06 03:38:35;;;;;;;5.40;2.65;;;;;;;22.14;100.00;100265.88;5009166;28;20046;-83
2023/07/06 03:41:04;;;;;;;3.60;2.38;;;;;;;21.53;100.00;100152.25;4989497;28;20034;-78
2023/07/06 03:43:31;;;;;;;11.43;3.70;;;;;;;22.23;100.00;100253.88;5009524;28;20418;-79
2023/07/06 03:45:56;;;;;;;5.35;2.70;;;;;;;21.37;100.00;100117.41;5008500;28;20596;-78
2023/07/06 03:48:22;;;;;;;4.85;2.92;;;;;;;22.25;100.00;100260.03;4983178;28;20049;-80
2023/07/06 03:50:52;;;;;;;6.13;2.92;;;;;;;21.85;100.00;100220.09;5008469;28;20041;-80
2023/07/06 03:53:19;;;;;;;2.70;2.08;;;;;;;22.03;100.00;100258.41;5008679;28;20068;-79
2023/07/06 03:55:44;;;;;;;4.60;2.47;;;;;;;21.66;100.00;100187.25;5009145;28;20033;-78
2023/07/06 03:58:10;;;;;;;6.82;2.78;;;;;;;22.18;100.00;100248.75;5014432;28;20041;-78
2023/07/06 04:00:36;;;;;;;4.45;3.45;;;;;;;22.12;100.00;100233.00;5002216;28;20148;-80
2023/07/06 04:03:06;;;;;;;8.55;2.97;;;;;;;22.22;100.00;100262.84;5008191;28;20042;-79
2023/07/06 04:05:38;;;;;;;3.45;2.58;;;;;;;22.27;100.00;100277.72;5008082;28;20046;-80
2023/07/06 04:08:08;;;;;;;6.40;3.67;;;;;;;22.21;100.00;100242.41;5004822;28;20034;-79
2023/07/06 04:10:34;;;;;;;5.15;3.72;;;;;;;22.33;100.00;100261.34;5003936;28;20046;-79
2023/07/06 04:13:00;;;;;;;5.85;3.42;;;;;;;22.29;100.00;100259.78;5004661;28;20185;-78
2023/07/06 04:15:26;;;;;;;7.57;3.92;;;;;;;22.00;100.00;100185.53;5002443;28;20065;-81
2023/07/06 04:17:52;;;;;;;10.98;3.38;;;;;;;22.50;100.00;100263.16;4992475;28;20125;-79
2023/07/06 04:20:28;;;;;;;13.25;3.92;;;;;;;22.33;100.00;100260.47;5007200;28;20038;-80
2023/07/06 04:22:57;;;;;;;4.32;2.55;;;;;;;22.55;100.00;100269.13;5008169;28;20030;-78
2023/07/06 04:25:29;;;;;;;3.70;2.92;;;;;;;22.53;100.00;100273.69;5012652;28;20498;-80
2023/07/06 04:27:55;;;;;;;10.30;5.10;;;;;;;22.51;100.00;100270.22;5005650;28;20509;-76
2023/07/06 04:30:20;;;;;;;4.82;3.10;;;;;;;22.04;100.00;100168.41;5007416;28;20582;-79
2023/07/06 04:32:50;;;;;;;4.93;3.10;;;;;;;22.77;100.00;100273.34;5004775;28;20119;-81
2023/07/06 04:35:18;;;;;;;6.53;3.95;;;;;;;22.58;100.00;100257.41;5006237;28;20481;-80
2023/07/06 04:37:45;;;;;;;4.70;3.50;;;;;;;22.63;100.00;100241.97;5002223;28;20050;-82
2023/07/06 04:40:13;;;;;;;6.13;3.90;;;;;;;22.37;100.00;100219.28;5005836;28;20133;-79
2023/07/06 04:42:40;;;;;;;7.75;3.17;;;;;;;22.22;100.00;100177.28;5007448;28;20041;-78
2023/07/06 04:45:08;;;;;;;8.63;2.90;;;;;;;22.85;100.00;100252.41;5000228;28;20050;-78
2023/07/06 04:47:34;;;;;;;4.45;3.63;;;;;;;22.90;100.00;100257.53;4997662;28;20046;-78
2023/07/06 04:49:59;;;;;;;4.05;2.78;;;;;;;22.71;100.00;100199.66;5002773;28;20033;-79
2023/07/06 04:52:25;;;;;;;6.25;4.57;;;;;;;23.09;100.00;100263.63;4996661;28;20058;-78
2023/07/06 04:54:50;;;;;;;6.70;3.95;;;;;;;22.82;100.00;100196.38;5000438;28;20472;-79
2023/07/06 04:57:16;;;;;;;13.50;3.70;;;;;;;22.66;100.00;100164.25;4999608;28;20446;-76
2023/07/06 04:59:43;;;;;;;5.18;3.90;;;;;;;22.88;100.00;100166.63;5006024;28;20080;-80
2023/07/06 05:02:10;;;;;;;5.32;3.30;;;;;;;23.38;100.00;100263.84;4997100;28;20402;-78
2023/07/06 05:04:40;;;;;;;4.35;2.25;;;;;;;23.23;100.00;100213.84;5004132;28;20099;-77
2023/07/06 05:07:06;;;;;;;4.82;2.70;;;;;;;23.20;100.00;100180.03;4979717;28;20050;-78
2023/07/06 05:09:32;;;;;;;8.63;4.30;;;;;;;24.06;100.00;100263.56;5006955;28;20057;-77
2023/07/06 05:11:58;;;;;;;5.50;2.95;;;;;;;23.84;100.00;100180.03;5002868;28;20052;-77
2023/07/06 05:14:23;;;;;;;6.32;3.60;;;;;;;24.63;100.00;100247.66;5000424;28;20038;-76
2023/07/06 05:16:49;;;;;;;7.15;3.63;;;;;;;24.93;100.00;100251.22;4989645;28;20100;-76
2023/07/06 05:19:15;;;;;;;5.22;3.33;;;;;;;24.81;100.00;100210.75;5006901;28;20076;-77
2023/07/06 05:21:41;;;;;;;10.45;3.10;;;;;;;25.30;100.00;100224.75;4998845;28;20050;-77
2023/07/06 05:24:07;;;;;;;6.45;3.67;;;;;;;25.34;100.00;100202.13;4982012;28;20849;-77
2023/07/06 05:26:32;;;;;;;7.53;4.40;;;;;;;25.16;100.00;100206.81;4995201;28;20061;-79
2023/07/06 05:28:58;;;;;;;5.25;3.38;;;;;;;26.03;100.00;100211.00;5000410;28;20042;-80
2023/07/06 05:31:23;;;;;;;5.82;3.65;;;;;;;26.64;100.00;100267.84;4987916;28;20054;-79
2023/07/06 05:33:49;;;;;;;7.38;4.45;;;;;;;26.92;100.00;100267.63;4989165;28;20561;-81
2023/07/06 05:36:15;;;;;;;5.07;3.38;;;;;;;26.93;100.00;100263.97;4993584;28;20062;-80
2023/07/06 05:38:40;;;;;;;5.93;3.35;;;;;;;25.93;100.00;100186.56;5002467;28;20413;-79
2023/07/06 05:41:06;;;;;;;4.72;3.10;;;;;;;26.19;100.00;100122.91;5001480;28;20383;-82
2023/07/06 05:43:31;;;;;;;4.40;3.47;;;;;;;26.59;100.00;100176.66;5005265;28;20034;-80
2023/07/06 05:45:57;;;;;;;10.32;4.18;;;;;;;27.53;100.00;100288.47;5005478;28;20045;-81
2023/07/06 05:48:22;;;;;;;8.65;4.22;;;;;;;27.80;100.00;100266.72;5003410;28;20053;-80
2023/07/06 05:50:48;;;;;;;17.13;4.13;;;;;;;27.81;100.00;100225.28;4988113;28;20421;-79
2023/07/06 05:53:13;;;;;;;6.18;4.07;;;;;;;27.54;100.00;100191.34;5006501;28;20029;-79
2023/07/06 05:55:43;;;;;;;4.82;3.28;;;;;;;27.58;100.00;100203.63;5006421;28;20588;-82
2023/07/06 05:58:13;;;;;;;6.18;4.35;;;;;;;28.03;100.00;100202.13;5006179;28;20126;-79
2023/07/06 06:00:39;;;;;;;5.97;3.92;;;;;;;28.69;100.00;100276.19;5004650;28;20072;-81
2023/07/06 06:03:05;;;;;;;6.18;3.40;;;;;;;28.04;100.00;100204.69;5005883;28;20049;-79
2023/07/06 06:05:31;;;;;;;5.75;4.13;;;;;;;27.96;100.00;100191.81;5005697;28;20044;-79
2023/07/06 06:07:58;;;;;;;7.90;2.70;;;;;;;28.27;100.00;100216.41;5000639;28;20035;-80
2023/07/06 06:10:23;;;;;;;4.55;3.33;;;;;;;28.41;100.00;100213.50;5004130;28;20042;-80
2023/07/06 06:12:49;;;;;;;5.43;3.25;;;;;;;28.81;100.00;100286.03;4987381;28;20038;-80
2023/07/06 06:15:15;;;;;;;5.15;2.50;;;;;;;28.31;100.00;100207.13;5005902;28;20099;-80
2023/07/06 06:17:41;;;;;;;5.07;4.38;;;;;;;28.18;100.00;100271.94;5004229;28;20045;-81
2023/07/06 06:20:09;;;;;;;5.15;3.03;;;;;;;28.68;100.00;100225.00;4988134;28;20072;-82
2023/07/06 06:22:35;;;;;;;8.68;3.40;;;;;;;29.15;100.00;100260.91;5003079;28;20023;-79
2023/07/06 06:25:02;;;;;;;5.07;3.00;;;;;;;28.62;100.00;100202.03;5005215;28;20057;-81
2023/07/06 06:27:29;;;;;;;15.38;3.72;;;;;;;27.81;100.00;100197.47;4984184;28;20049;-79
2023/07/06 06:29:55;;;;;;;4.60;2.90;;;;;;;28.69;100.00;100272.63;4998391;28;20050;-79
2023/07/06 06:32:22;;;;;;;4.28;2.95;;;;;;;27.59;100.00;100174.81;5002218;28;20030;-79
2023/07/06 06:34:47;;;;;;;8.48;2.70;;;;;;;27.85;100.00;100269.97;5003035;28;20030;-79
2023/07/06 06:37:13;;;;;;;8.75;3.88;;;;;;;27.92;100.00;100238.84;4999066;28;20061;-79
2023/07/06 06:39:39;;;;;;;6.55;3.58;;;;;;;27.39;100.00;100230.19;5009781;28;20537;-82
2023/07/06 06:42:05;;;;;;;7.03;4.28;;;;;;;27.79;100.00;100217.31;5009736;28;20042;-81
2023/07/06 06:44:31;;;;;;;3.70;2.70;;;;;;;28.74;100.00;100249.69;5007541;28;20091;-82
2023/07/06 06:47:00;;;;;;;4.30;2.47;;;;;;;28.65;100.00;100192.84;5010143;28;20456;-80
2023/07/06 06:49:25;;;;;;;5.05;3.88;;;;;;;28.52;100.00;100237.00;4996962;28;20103;-80
2023/07/06 06:51:51;;;;;;;6.32;3.83;;;;;;;28.29;100.00;100271.13;5006023;28;20048;-81
2023/07/06 06:54:16;;;;;;;3.75;2.67;;;;;;;28.23;100.00;100195.19;5009505;28;20042;-81
2023/07/06 06:56:42;;;;;;;5.05;3.20;;;;;;;28.96;100.00;100251.56;5009457;28;20186;-79
2023/07/06 06:59:09;;;;;;;6.78;4.60;;;;;;;28.82;100.00;100187.81;5003286;28;20453;-80
2023/07/06 07:01:35;;;;;;;6.57;3.97;;;;;;;28.56;100.00;100179.06;5003268;28;20057;-80
2023/07/06 07:04:00;;;;;;;4.82;3.45;;;;;;;27.99;100.00;100188.84;5004261;28;20065;-80
2023/07/06 07:06:27;;;;;;;5.47;2.22;;;;;;;28.65;100.00;100142.38;4985046;28;20050;-81
2023/07/06 07:08:54;;;;;;;5.93;3.70;;;;;;;29.39;100.00;100258.06;5011385;28;20123;-80
2023/07/06 07:11:20;;;;;;;6.10;4.32;;;;;;;29.13;100.00;100268.28;5008914;28;20037;-81
2023/07/06 07:13:48;;;;;;;3.65;2.67;;;;;;;29.22;100.00;100246.78;5009708;28;20038;-82
2023/07/06 07:16:14;;;;;;;4.82;3.60;;;;;;;28.96;100.00;100189.41;4991307;28;20042;-81
2023/07/06 07:18:40;;;;;;;4.53;3.38;;;;;;;29.14;100.00;100272.69;4991046;28;20050;-80
2023/07/06 07:21:07;;;;;;;4.05;2.53;;;;;;;29.06;100.00;100208.44;5008165;28;20045;-79
2023/07/06 07:23:41;;;;;;;8.13;3.42;;;;;;;29.62;100.00;100269.72;5008514;28;20048;-78
2023/07/06 07:26:08;;;;;;;4.72;3.50;;;;;;;28.87;100.00;100132.53;5008488;28;20053;-79
2023/07/06 07:28:34;;;;;;;7.30;3.88;;;;;;;28.75;100.00;100194.69;5005412;28;20040;-79
2023/07/06 07:31:01;;;;;;;4.88;3.25;;;;;;;28.58;100.00;100193.31;5009001;28;20042;-78
2023/07/06 07:33:28;;;;;;;7.30;4.53;;;;;;;29.27;100.00;100241.00;4990902;28;20443;-77
2023/07/06 07:35:57;;;;;;;7.13;4.15;;;;;;;28.97;100.00;100255.97;5007067;28;20057;-79
2023/07/06 07:38:24;;;;;;;5.57;3.65;;;;;;;28.69;100.00;100170.03;5001696;28;20061;-80
2023/07/06 07:40:58;;;;;;;9.07;4.32;;;;;;;29.52;100.00;100277.69;5008499;28;20482;-80
2023/07/06 07:43:25;;;;;;;4.55;2.88;;;;;;;28.52;100.00;100147.91;4996669;28;20117;-80
2023/07/06 07:46:11;;;;;;;6.50;4.22;;;;;;;29.41;100.00;100254.25;5008043;28;20049;-80
2023/07/06 07:48:44;;;;;;;6.88;4.30;;;;;;;29.62;100.00;100250.78;5007331;28;20685;-77
2023/07/06 07:51:12;;;;;;;5.55;3.60;;;;;;;29.16;100.00;100203.19;5007962;28;20042;-81
2023/07/06 07:53:39;;;;;;;6.57;4.45;;;;;;;29.21;100.00;100199.09;5013332;28;20504;-81
2023/07/06 07:56:06;;;;;;;6.97;4.65;;;;;;;29.45;100.00;100130.47;5006932;28;20120;-80
2023/07/06 07:58:36;;;;;;;4.50;3.03;;;;;;;30.37;100.00;100255.34;5013842;28;20080;-80
2023/07/06 08:01:04;;;;;;;16.83;6.15;;;;;;;29.92;100.00;100187.84;5006157;28;20054;-80
2023/07/06 08:03:29;;;;;;;5.32;3.17;;;;;;;30.03;99.57;100233.81;5007616;28;20545;-80
2023/07/06 08:05:56;;;;;;;11.25;3.88;;;;;;;30.34;97.42;100243.91;5005718;28;20129;-81
2023/07/06 08:08:23;;;;;;;5.38;3.38;;;;;;;30.46;98.72;100199.50;5004921;28;20045;-70
2023/07/06 08:10:53;;;;;;;6.47;3.45;;;;;;;29.65;90.05;100212.66;5001646;28;20410;-71
2023/07/06 08:13:20;;;;;;;4.05;2.42;;;;;;;29.45;94.10;100185.44;4987343;28;20046;-73
2023/07/06 08:15:46;;;;;;;7.70;3.17;;;;;;;29.78;96.44;100183.63;4996088;28;20044;-72
2023/07/06 08:18:12;;;;;;;11.13;3.05;;;;;;;30.76;95.94;100246.59;5004802;28;20096;-73
2023/07/06 08:20:38;;;;;;;3.75;2.42;;;;;;;30.01;89.88;100256.56;5003421;28;20053;-73
2023/07/06 08:23:12;;;;;;;14.63;1.98;;;;;;;30.58;90.02;100238.22;5004081;28;20935;-72
2023/07/06 08:25:40;;;;;;;4.68;2.55;;;;;;;30.31;85.40;100220.66;5004373;28;20040;-72
2023/07/06 08:28:07;;;;;;;4.90;3.35;;;;;;;30.63;90.34;100162.84;5003213;28;20053;-71
2023/07/06 08:30:33;;;;;;;7.13;5.05;;;;;;;31.13;88.44;100241.53;5000417;28;20101;-71
2023/07/06 08:33:02;;;;;;;6.32;3.58;;;;;;;30.49;86.93;100246.16;4989113;28;20046;-72
2023/07/06 08:35:29;;;;;;;4.38;3.15;;;;;;;30.87;85.05;100193.22;4999489;28;20485;-71
2023/07/06 08:37:56;;;;;;;4.45;3.20;;;;;;;31.02;88.67;100226.22;5003600;28;20033;-73
2023/07/06 08:40:25;;;;;;;8.00;4.90;;;;;;;30.95;81.40;100181.69;5003620;28;20056;-72
2023/07/06 08:42:51;;;;;;;7.20;3.38;;;;;;;30.97;75.46;100238.47;4996924;28;20065;-71
2023/07/06 08:45:22;;;;;;;4.57;2.58;;;;;;;29.79;79.44;100098.78;5001756;28;20133;-71
2023/07/06 08:47:49;;;;;;;6.50;3.17;;;;;;;30.77;74.83;100230.22;5007507;28;20069;-71
2023/07/06 08:50:20;;;;;;;6.18;3.92;;;;;;;31.51;84.45;100227.25;5001239;28;20060;-72
2023/07/06 08:52:46;;;;;;;5.03;2.60;;;;;;;30.64;75.74;100210.59;5004416;28;20037;-71
2023/07/06 08:55:15;;;;;;;3.88;3.00;;;;;;;32.13;77.53;100227.91;5004039;28;20050;-72
2023/07/06 08:57:41;;;;;;;4.50;2.65;;;;;;;31.26;72.81;100236.72;5004434;28;20580;-71
2023/07/06 09:00:21;;;;;;;3.60;2.47;;;;;;;30.99;67.95;100237.34;5000653;28;20120;-71
2023/07/06 09:02:49;;;;;;;4.88;3.35;;;;;;;31.73;68.37;100177.31;5005871;28;20072;-70
2023/07/06 09:05:16;;;;;;;4.65;2.88;;;;;;;31.75;70.21;100224.16;5001691;28;20111;-72
2023/07/06 09:07:44;;;;;;;6.93;4.60;;;;;;;31.55;64.79;100177.16;4986938;28;20133;-72
2023/07/06 09:10:17;;;;;;;8.32;4.57;;;;;;;31.68;62.76;100216.69;4997634;28;20085;-72
2023/07/06 09:12:43;;;;;;;8.77;3.10;;;;;;;32.01;57.76;100166.63;4990581;28;20049;-73
2023/07/06 09:15:09;;;;;;;6.65;5.45;;;;;;;32.12;62.71;100168.31;5004590;28;20486;-69
2023/07/06 09:17:45;;;;;;;16.73;9.30;;;;;;;32.85;60.01;100227.50;5001346;28;20041;-68
2023/07/06 09:20:13;;;;;;;8.45;4.05;;;;;;;32.14;55.87;100148.16;4992223;28;20478;-68
2023/07/06 09:22:42;;;;;;;19.88;10.30;;;;;;;31.48;66.82;100180.56;4999514;28;20470;-70
2023/07/06 09:25:25;;;;;;;23.42;12.57;;;;;;;31.00;75.93;100187.56;4998885;28;20104;-70
2023/07/06 09:27:51;;;;;;;4.35;3.53;;;;;;;31.91;61.60;100180.19;4995761;28;20049;-69
2023/07/06 09:30:35;;;;;;;14.60;8.10;;;;;;;31.67;67.60;100139.88;5003221;28;20403;-68
2023/07/06 09:33:24;;;;;;;13.48;9.02;;;;;;;31.99;64.56;100138.75;4995975;28;20066;-69
2023/07/06 09:35:55;;;;;;;14.82;10.60;;;;;;;32.64;60.74;100220.44;5000532;28;20042;-69
2023/07/06 09:38:23;;;;;;;10.32;6.80;;;;;;;32.99;60.66;100222.44;5003288;28;20076;-68
2023/07/06 09:40:50;;;;;;;8.30;5.22;;;;;;;32.28;57.63;100154.97;5001396;28;20464;-68
2023/07/06 09:43:22;;;;;;;14.73;8.18;;;;;;;31.55;70.32;100209.69;5005629;28;20398;-69
2023/07/06 09:45:51;;;;;;;14.38;8.00;;;;;;;30.78;74.97;100128.13;5005135;28;20048;-69
2023/07/06 09:48:28;;;;;;;9.95;7.05;;;;;;;32.92;63.93;100209.56;5006362;28;20088;-69
2023/07/06 09:51:05;;;;;;;4.68;3.28;;;;;;;33.63;52.59;100204.38;5006539;28;20042;-68
2023/07/06 09:53:36;;;;;;;3.88;2.95;;;;;;;33.49;50.15;100201.31;5001928;28;20057;-70
2023/07/06 09:56:03;;;;;;;5.35;3.05;;;;;;;33.07;51.76;100186.38;4999214;28;20049;-69
2023/07/06 09:58:30;;;;;;;5.13;3.35;;;;;;;33.33;52.65;100107.63;5006432;28;20456;-69
2023/07/06 10:01:05;;;;;;;3.70;2.65;;;;;;;34.82;51.00;100193.09;5003079;28;20084;-69
2023/07/06 10:03:55;;;;;;;6.10;3.40;;;;;;;34.89;48.17;100191.41;5005528;28;20068;-69
2023/07/06 10:06:56;;;;;;;5.32;3.20;;;;;;;34.44;44.41;100124.38;4985539;28;20494;-69
2023/07/06 10:09:27;;;;;;;4.90;3.10;;;;;;;35.23;45.02;100171.44;4989710;28;20053;-69
2023/07/06 10:12:03;;;;;;;5.45;3.30;;;;;;;35.60;44.79;100161.13;4999067;28;20046;-68
2023/07/06 10:14:31;;;;;;;5.22;3.42;;;;;;;34.80;44.03;100113.31;5000212;28;20110;-68
2023/07/06 10:17:15;;;;;;;9.60;3.83;;;;;;;34.08;44.73;100099.09;5002978;28;20123;-69
2023/07/06 10:20:03;;;;;;;5.53;2.75;;;;;;;35.65;44.80;100167.81;4999527;28;20108;-69
2023/07/06 10:22:29;;;;;;;3.92;2.55;;;;;;;35.28;41.77;100160.03;4995621;28;20105;-68
2023/07/06 10:25:36;;;;;;;4.43;3.40;;;;;;;35.17;43.81;100143.97;5004809;28;20042;-69
2023/07/06 10:28:10;;;;;;;5.13;2.88;;;;;;;35.39;41.34;100150.69;4976202;28;20082;-69
2023/07/06 10:30:44;;;;;;;4.68;2.63;;;;;;;34.24;41.18;100139.22;4995386;28;20058;-69
2023/07/06 10:33:18;;;;;;;9.55;3.40;;;;;;;35.07;41.78;100095.00;4999667;28;20401;-69
2023/07/06 10:35:46;;;;;;;6.95;3.75;;;;;;;36.00;42.91;100148.56;5003148;28;20037;-69
2023/07/06 10:38:12;;;;;;;5.28;3.28;;;;;;;36.31;42.44;100115.91;4995533;28;20096;-68
2023/07/06 10:40:39;;;;;;;5.35;3.10;;;;;;;36.24;40.97;100134.88;5006731;28;20038;-67
2023/07/06 10:43:13;;;;;;;4.22;2.55;;;;;;;36.37;40.46;100137.09;5003774;28;20056;-68
2023/07/06 10:45:56;;;;;;;4.00;2.88;;;;;;;34.53;42.59;100078.06;5002261;28;20464;-68
2023/07/06 10:48:24;;;;;;;4.93;3.47;;;;;;;35.21;42.14;100138.03;4999073;28;20042;-67
2023/07/06 10:51:09;;;;;;;6.93;3.08;;;;;;;33.99;44.78;100079.09;5003412;28;20050;-68
2023/07/06 10:53:36;;;;;;;5.35;3.50;;;;;;;34.01;47.75;100114.34;5000712;28;20081;-67
2023/07/06 10:56:01;;;;;;;3.35;2.40;;;;;;;34.63;45.40;100117.88;4997559;28;20088;-68
2023/07/06 10:58:36;;;;;;;4.43;2.55;;;;;;;35.48;45.23;100120.50;4999647;28;20558;-68
2023/07/06 11:01:09;;;;;;;3.95;3.17;;;;;;;34.60;45.75;100101.81;5002510;28;20144;-67
2023/07/06 11:03:37;;;;;;;4.55;2.88;;;;;;;34.68;45.52;100049.22;4994071;28;20077;-68
2023/07/06 11:06:07;;;;;;;3.40;2.95;;;;;;;35.00;43.98;100107.59;4993139;28;20037;-69
2023/07/06 11:09:03;;;;;;;5.25;3.75;;;;;;;35.61;44.36;100113.72;5005297;28;20091;-69
2023/07/06 11:11:34;;;;;;;21.45;4.00;;;;;;;35.38;44.20;100043.41;4997923;28;20061;-68
2023/07/06 11:14:24;;;;;;;10.57;5.32;;;;;;;34.96;45.13;100111.66;4998290;28;20033;-68
2023/07/06 11:17:02;;;;;;;5.35;3.42;;;;;;;34.43;45.51;100113.63;4996043;28;20530;-68
2023/07/06 11:19:34;;;;;;;4.88;2.78;;;;;;;34.00;46.39;100045.44;5000436;28;20061;-67
2023/07/06 11:22:06;;;;;;;6.23;3.33;;;;;;;34.10;45.73;100039.06;5002821;28;20046;-68
2023/07/06 11:24:38;;;;;;;4.05;2.38;;;;;;;34.30;45.43;100053.28;4999811;28;20046;-67
2023/07/06 11:27:15;;;;;;;4.47;3.47;;;;;;;34.43;44.48;100114.47;5001490;28;20103;-68
2023/07/06 11:29:41;;;;;;;4.75;3.42;;;;;;;34.63;44.04;100070.66;4992040;28;20092;-68